X  SluitMETAR luchtvaart weer gegevens      EHGG Eelde

Temperatuur

21°C Temperatuur

17°C Dauwpunt

78% Vochtigheid



Wind

14 KM/U

 9 MPH

 4 M/S

 8 KTS



200°
Zuid Zuid
West
Huidig weer

Veel verspreide wolken Veel verspreide wolken
Luchtdruk 1008.92 (hPa) - 29.79 (in)
Zicht 6.2 (mi) - 10 (km)
Vliegveld
Vliegveld code EHGG

Locatie Eelde 20 (km)

Metar:
EHGG 201825Z AUTO 20008KT 180V240 9999 SCT030 SCT044 21/17 Q1009 RETS TEMPO 23015G30KT 4000 TSRA SCT030CB

Tijd: 20-07-2019 20:25